Time;durP1;ratioP1;P1;durP2;ratioP2;P2;SDS_P1;SDS_P2;PMS_P1;PMS_P2;Temp;Humidity;BMP_temperature;BMP_pressure;BME280_temperature;BME280_humidity;BME280_pressure;Samples;Min_cycle;Max_cycle;Signal;HPM_P1;HPM_P2
2022/06/29 00:00:43;;;;;;;;;;;;;;;;;;2099313;28;19931;-44
2022/06/29 00:01:44;;;;;;;;;;;;;;;;;;2099439;28;20061;-45
2022/06/29 00:02:45;;;;;;;;;;;;;;;;;;2099244;28;20320;-46
2022/06/29 00:03:45;;;;;;;;;;;;;;;;;;2099265;28;20280;-45
2022/06/29 00:04:47;;;;;;;;;;;;;;;;;;2099179;28;19920;-45
2022/06/29 00:05:48;;;;;;;;;;;;;;;;;;2099366;28;20373;-44
2022/06/29 00:06:48;;;;;;;;;;;;;;;;;;2099108;28;19931;-44
2022/06/29 00:07:49;;;;;;;;;;;;;;;;;;2099091;28;19958;-44
2022/06/29 00:08:50;;;;;;;;;;;;;;;;;;2099127;28;20005;-43
2022/06/29 00:09:51;;;;;;;;;;;;;;;;;;2099434;28;19979;-44
2022/06/29 00:10:52;;;;;;;;;;;;;;;;;;2099053;28;20022;-44
2022/06/29 00:11:53;;;;;;;;;;;;;;;;;;2090741;28;19920;-44
2022/06/29 00:12:54;;;;;;;;;;;;;;;;;;2090950;28;19921;-43
2022/06/29 00:13:55;;;;;;;;;;;;;;;;;;2090941;28;19921;-43
2022/06/29 00:14:55;;;;;;;;;;;;;;;;;;2090892;28;20019;-43
2022/06/29 00:15:56;;;;;;;;;;;;;;;;;;2090947;28;19928;-43
2022/06/29 00:16:58;;;;;;;;;;;;;;;;;;2090936;28;19921;-44
2022/06/29 00:17:59;;;;;;;;;;;;;;;;;;2090678;28;19925;-43
2022/06/29 00:18:59;;;;;;;;;;;;;;;;;;2090922;28;19920;-43
2022/06/29 00:20:00;;;;;;;;;;;;;;;;;;2090851;28;19921;-44
2022/06/29 00:21:01;;;;;;;;;;;;;;;;;;2090630;28;19921;-43
2022/06/29 00:22:02;;;;;;;;;;;;;;;;;;2090767;28;19921;-43
2022/06/29 00:23:04;;;;;;;;;;;;;;;;;;2090849;28;20003;-43
2022/06/29 00:24:04;;;;;;;;;;;;;;;;;;2090745;28;20054;-43
2022/06/29 00:25:05;;;;;;;;;;;;;;;;;;2095523;28;19920;-43
2022/06/29 00:26:06;;;;;;;;;;;;;;;;;;2098939;28;19921;-44
2022/06/29 00:27:08;;;;;;;;;;;;;;;;;;2099029;28;19947;-43
2022/06/29 00:28:09;;;;;;;;;;;;;;;;;;2099044;28;20015;-44
2022/06/29 00:29:09;;;;;;;;;;;;;;;;;;2099013;28;19920;-45
2022/06/29 00:30:10;;;;;;;;;;;;;;;;;;2099029;28;20284;-43
2022/06/29 00:31:11;;;;;;;;;;;;;;;;;;2099069;28;20019;-44
2022/06/29 00:32:12;;;;;;;;;;;;;;;;;;2099015;28;20346;-43
2022/06/29 00:33:13;;;;;;;;;;;;;;;;;;2098872;28;19960;-43
2022/06/29 00:34:14;;;;;;;;;;;;;;;;;;2099212;28;20146;-46
2022/06/29 00:35:15;;;;;;;;;;;;;;;;;;2098896;28;20436;-46
2022/06/29 00:36:16;;;;;;;;;;;;;;;;;;2099088;28;20010;-43
2022/06/29 00:37:17;;;;;;;;;;;;;;;;;;2098908;28;19920;-44
2022/06/29 00:38:18;;;;;;;;;;;;;;;;;;2099123;28;19921;-43
2022/06/29 00:39:19;;;;;;;;;;;;;;;;;;2099016;28;20031;-44
2022/06/29 00:40:20;;;;;;;;;;;;;;;;;;2098785;28;19921;-43
2022/06/29 00:41:20;;;;;;;;;;;;;;;;;;2098974;28;19985;-44
2022/06/29 00:42:22;;;;;;;;;;;;;;;;;;2098857;28;19947;-43
2022/06/29 00:43:24;;;;;;;;;;;;;;;;;;2098352;28;20339;-43
2022/06/29 00:44:25;;;;;;;;;;;;;;;;;;2098912;28;19974;-44
2022/06/29 00:45:26;;;;;;;;;;;;;;;;;;2098847;28;20031;-45
2022/06/29 00:46:27;;;;;;;;;;;;;;;;;;2098235;28;20011;-43
2022/06/29 00:47:28;;;;;;;;;;;;;;;;;;2099079;28;19963;-43
2022/06/29 00:48:29;;;;;;;;;;;;;;;;;;2099093;28;20212;-43
2022/06/29 00:49:30;;;;;;;;;;;;;;;;;;2098840;28;20371;-43
2022/06/29 00:50:31;;;;;;;;;;;;;;;;;;2099033;28;19999;-43
2022/06/29 00:51:32;;;;;;;;;;;;;;;;;;2098704;28;20069;-43
2022/06/29 00:52:33;;;;;;;;;;;;;;;;;;2098993;28;19920;-44
2022/06/29 00:53:33;;;;;;;;;;;;;;;;;;2098807;28;19920;-43
2022/06/29 00:54:34;;;;;;;;;;;;;;;;;;2099016;28;19927;-46
2022/06/29 00:55:35;;;;;;;;;;;;;;;;;;2098889;28;20440;-46
2022/06/29 00:56:36;;;;;;;;;;;;;;;;;;2098900;28;19921;-45
2022/06/29 00:57:37;;;;;;;;;;;;;;;;;;2098863;28;19981;-45
2022/06/29 00:58:38;;;;;;;;;;;;;;;;;;2098817;28;19986;-45
2022/06/29 00:59:39;;;;;;;;;;;;;;;;;;2098845;28;19959;-45
2022/06/29 01:00:40;;;;;;;;;;;;;;;;;;2098768;28;19946;-45
2022/06/29 01:01:41;;;;;;;;;;;;;;;;;;2098684;28;19920;-45
2022/06/29 01:02:41;;;;;;;;;;;;;;;;;;2098764;28;20335;-45
2022/06/29 01:03:42;;;;;;;;;;;;;;;;;;2098833;28;19921;-45
2022/06/29 01:04:43;;;;;;;;;;;;;;;;;;2098594;28;19971;-45
2022/06/29 01:05:44;;;;;;;;;;;;;;;;;;2099135;28;19940;-44
2022/06/29 01:06:45;;;;;;;;;;;;;;;;;;2098591;28;19921;-43
2022/06/29 01:07:46;;;;;;;;;;;;;;;;;;2098904;28;19959;-44
2022/06/29 01:08:47;;;;;;;;;;;;;;;;;;2098790;28;19968;-43
2022/06/29 01:09:48;;;;;;;;;;;;;;;;;;2098635;28;19959;-43
2022/06/29 01:10:49;;;;;;;;;;;;;;;;;;2098835;28;19924;-43
2022/06/29 01:11:50;;;;;;;;;;;;;;;;;;2090984;28;19920;-43
2022/06/29 01:12:51;;;;;;;;;;;;;;;;;;2090502;28;19965;-44
2022/06/29 01:13:52;;;;;;;;;;;;;;;;;;2090438;28;19970;-43
2022/06/29 01:14:53;;;;;;;;;;;;;;;;;;2090607;28;20055;-43
2022/06/29 01:15:54;;;;;;;;;;;;;;;;;;2090327;28;20328;-43
2022/06/29 01:16:55;;;;;;;;;;;;;;;;;;2090444;28;19928;-44
2022/06/29 01:17:56;;;;;;;;;;;;;;;;;;2090533;28;19920;-43
2022/06/29 01:18:57;;;;;;;;;;;;;;;;;;2090523;28;19927;-43
2022/06/29 01:19:58;;;;;;;;;;;;;;;;;;2090591;28;19920;-43
2022/06/29 01:20:59;;;;;;;;;;;;;;;;;;2090537;28;20305;-45
2022/06/29 01:22:01;;;;;;;;;;;;;;;;;;2090276;28;19974;-45
2022/06/29 01:23:02;;;;;;;;;;;;;;;;;;2090338;28;19947;-45
2022/06/29 01:24:03;;;;;;;;;;;;;;;;;;2090387;28;20441;-45
2022/06/29 01:25:04;;;;;;;;;;;;;;;;;;2090239;28;19979;-46
2022/06/29 01:26:05;;;;;;;;;;;;;;;;;;2090463;28;19963;-45
2022/06/29 01:27:06;;;;;;;;;;;;;;;;;;2090487;28;19963;-45
2022/06/29 01:28:06;;;;;;;;;;;;;;;;;;2090440;28;20050;-45
2022/06/29 01:29:07;;;;;;;;;;;;;;;;;;2090448;28;19924;-45
2022/06/29 01:30:08;;;;;;;;;;;;;;;;;;2090492;28;19931;-45
2022/06/29 01:31:09;;;;;;;;;;;;;;;;;;2090190;28;19920;-45
2022/06/29 01:32:10;;;;;;;;;;;;;;;;;;2090359;28;20051;-45
2022/06/29 01:33:11;;;;;;;;;;;;;;;;;;2090439;28;19921;-45
2022/06/29 01:34:12;;;;;;;;;;;;;;;;;;2090658;28;20008;-46
2022/06/29 01:35:13;;;;;;;;;;;;;;;;;;2090328;28;19986;-45
2022/06/29 01:36:14;;;;;;;;;;;;;;;;;;2090257;28;19920;-45
2022/06/29 01:37:15;;;;;;;;;;;;;;;;;;2090306;28;19921;-45
2022/06/29 01:38:16;;;;;;;;;;;;;;;;;;2090477;28;19990;-44
2022/06/29 01:39:17;;;;;;;;;;;;;;;;;;2090318;28;19921;-44
2022/06/29 01:40:18;;;;;;;;;;;;;;;;;;2090372;28;20015;-45
2022/06/29 01:41:19;;;;;;;;;;;;;;;;;;2090183;28;20306;-44
2022/06/29 01:42:19;;;;;;;;;;;;;;;;;;2090403;28;20329;-45
2022/06/29 01:43:20;;;;;;;;;;;;;;;;;;2090280;28;20015;-46
2022/06/29 01:44:21;;;;;;;;;;;;;;;;;;2090443;28;19943;-43
2022/06/29 01:45:22;;;;;;;;;;;;;;;;;;2090245;28;19921;-42
2022/06/29 01:46:23;;;;;;;;;;;;;;;;;;2090389;28;19920;-43
2022/06/29 01:47:24;;;;;;;;;;;;;;;;;;2090291;28;20305;-43
2022/06/29 01:48:25;;;;;;;;;;;;;;;;;;2090250;28;20297;-44
2022/06/29 01:49:27;;;;;;;;;;;;;;;;;;2090131;28;19921;-42
2022/06/29 01:50:28;;;;;;;;;;;;;;;;;;2090343;28;19960;-43
2022/06/29 01:51:29;;;;;;;;;;;;;;;;;;2090274;28;19967;-43
2022/06/29 01:52:30;;;;;;;;;;;;;;;;;;2090335;28;19921;-43
2022/06/29 01:53:31;;;;;;;;;;;;;;;;;;2090117;28;19921;-42
2022/06/29 01:54:32;;;;;;;;;;;;;;;;;;2090176;28;20461;-42
2022/06/29 01:55:33;;;;;;;;;;;;;;;;;;2090213;28;19963;-44
2022/06/29 01:56:34;;;;;;;;;;;;;;;;;;2090072;28;20293;-43
2022/06/29 01:57:35;;;;;;;;;;;;;;;;;;2090231;28;19920;-42
2022/06/29 01:58:35;;;;;;;;;;;;;;;;;;2090257;28;19929;-42
2022/06/29 01:59:36;;;;;;;;;;;;;;;;;;2090273;28;19925;-43
2022/06/29 02:00:37;;;;;;;;;;;;;;;;;;2094912;28;20392;-43
2022/06/29 02:01:38;;;;;;;;;;;;;;;;;;2098367;28;19928;-43
2022/06/29 02:02:39;;;;;;;;;;;;;;;;;;2098457;28;20007;-42
2022/06/29 02:03:40;;;;;;;;;;;;;;;;;;2098434;28;19951;-42
2022/06/29 02:04:41;;;;;;;;;;;;;;;;;;2098329;28;19920;-43
2022/06/29 02:05:42;;;;;;;;;;;;;;;;;;2098458;28;19967;-43
2022/06/29 02:06:43;;;;;;;;;;;;;;;;;;2098334;28;19920;-42
2022/06/29 02:07:44;;;;;;;;;;;;;;;;;;2098275;28;19927;-43
2022/06/29 02:08:45;;;;;;;;;;;;;;;;;;2098520;28;19920;-42
2022/06/29 02:09:46;;;;;;;;;;;;;;;;;;2098441;28;19959;-42
2022/06/29 02:10:48;;;;;;;;;;;;;;;;;;2098317;28;19924;-43
2022/06/29 02:11:50;;;;;;;;;;;;;;;;;;2090481;28;20434;-43
2022/06/29 02:12:51;;;;;;;;;;;;;;;;;;2090282;28;20006;-43
2022/06/29 02:13:52;;;;;;;;;;;;;;;;;;2089457;28;19974;-44
2022/06/29 02:14:52;;;;;;;;;;;;;;;;;;2090054;28;19975;-44
2022/06/29 02:15:54;;;;;;;;;;;;;;;;;;2090023;28;19921;-45
2022/06/29 02:16:54;;;;;;;;;;;;;;;;;;2090091;28;20334;-45
2022/06/29 02:17:55;;;;;;;;;;;;;;;;;;2090182;28;19927;-45
2022/06/29 02:18:56;;;;;;;;;;;;;;;;;;2089985;28;19920;-45
2022/06/29 02:19:57;;;;;;;;;;;;;;;;;;2090200;28;19974;-44
2022/06/29 02:20:58;;;;;;;;;;;;;;;;;;2090041;28;20022;-44
2022/06/29 02:21:59;;;;;;;;;;;;;;;;;;2090119;28;19924;-44
2022/06/29 02:23:00;;;;;;;;;;;;;;;;;;2089991;28;20274;-45
2022/06/29 02:24:01;;;;;;;;;;;;;;;;;;2090450;28;19963;-43
2022/06/29 02:25:03;;;;;;;;;;;;;;;;;;2090108;28;19921;-43
2022/06/29 02:26:04;;;;;;;;;;;;;;;;;;2089868;28;19974;-43
2022/06/29 02:27:05;;;;;;;;;;;;;;;;;;2090033;28;20374;-42
2022/06/29 02:28:06;;;;;;;;;;;;;;;;;;2089984;28;19963;-42
2022/06/29 02:29:06;;;;;;;;;;;;;;;;;;2090135;28;20015;-44
2022/06/29 02:30:07;;;;;;;;;;;;;;;;;;2089984;28;19920;-45
2022/06/29 02:35:07;;;;;;;;;;;;;;;;;;2089909;28;20016;-43
2022/06/29 02:36:08;;;;;;;;;;;;;;;;;;2090209;28;19924;-45
2022/06/29 02:37:09;;;;;;;;;;;;;;;;;;2089942;28;20011;-45
2022/06/29 02:38:10;;;;;;;;;;;;;;;;;;2090151;28;20027;-46
2022/06/29 02:39:11;;;;;;;;;;;;;;;;;;2089896;28;20374;-45
2022/06/29 02:40:12;;;;;;;;;;;;;;;;;;2089978;28;19952;-45
2022/06/29 02:41:12;;;;;;;;;;;;;;;;;;2089837;28;20020;-44
2022/06/29 02:42:13;;;;;;;;;;;;;;;;;;2090054;28;19920;-45
2022/06/29 02:43:14;;;;;;;;;;;;;;;;;;2090001;28;19924;-44
2022/06/29 02:44:15;;;;;;;;;;;;;;;;;;2089837;28;20007;-44
2022/06/29 02:45:16;;;;;;;;;;;;;;;;;;2090005;28;19927;-46
2022/06/29 02:46:22;;;;;;;;;;;;;;;;;;2089978;28;19928;-44
2022/06/29 02:47:23;;;;;;;;;;;;;;;;;;2089814;28;19921;-45
2022/06/29 02:48:24;;;;;;;;;;;;;;;;;;2089895;28;20353;-45
2022/06/29 02:49:25;;;;;;;;;;;;;;;;;;2090193;28;19920;-43
2022/06/29 02:50:26;;;;;;;;;;;;;;;;;;2089839;28;20368;-43
2022/06/29 02:51:27;;;;;;;;;;;;;;;;;;2089820;28;19959;-43
2022/06/29 02:52:28;;;;;;;;;;;;;;;;;;2089927;28;20007;-43
2022/06/29 02:53:29;;;;;;;;;;;;;;;;;;2089915;28;19925;-43
2022/06/29 02:54:30;;;;;;;;;;;;;;;;;;2090062;28;20003;-45
2022/06/29 02:55:31;;;;;;;;;;;;;;;;;;2089974;28;20366;-42
2022/06/29 02:56:31;;;;;;;;;;;;;;;;;;2091557;28;20408;-43
2022/06/29 02:57:32;;;;;;;;;;;;;;;;;;2097952;28;19925;-43
2022/06/29 02:58:33;;;;;;;;;;;;;;;;;;2097993;28;20446;-43
2022/06/29 02:59:34;;;;;;;;;;;;;;;;;;2098085;28;19999;-43
2022/06/29 03:00:35;;;;;;;;;;;;;;;;;;2098103;28;19920;-42
2022/06/29 03:01:36;;;;;;;;;;;;;;;;;;2098214;28;19963;-44
2022/06/29 03:02:37;;;;;;;;;;;;;;;;;;2097985;28;20036;-45
2022/06/29 03:03:38;;;;;;;;;;;;;;;;;;2098139;28;19927;-45
2022/06/29 03:04:39;;;;;;;;;;;;;;;;;;2098048;28;20378;-45
2022/06/29 03:05:40;;;;;;;;;;;;;;;;;;2098009;28;19924;-44
2022/06/29 03:06:40;;;;;;;;;;;;;;;;;;2097947;28;19966;-45
2022/06/29 03:07:41;;;;;;;;;;;;;;;;;;2098148;28;20435;-44
2022/06/29 03:08:42;;;;;;;;;;;;;;;;;;2097921;28;20031;-45
2022/06/29 03:09:43;;;;;;;;;;;;;;;;;;2098007;28;19920;-43
2022/06/29 03:10:44;;;;;;;;;;;;;;;;;;2098256;28;20015;-45
2022/06/29 03:11:45;;;;;;;;;;;;;;;;;;2090763;28;19921;-44
2022/06/29 03:12:46;;;;;;;;;;;;;;;;;;2089780;28;19999;-42
2022/06/29 03:13:47;;;;;;;;;;;;;;;;;;2089658;28;20273;-43
2022/06/29 03:14:48;;;;;;;;;;;;;;;;;;2089896;28;20342;-43
2022/06/29 03:15:49;;;;;;;;;;;;;;;;;;2089596;28;19947;-42
2022/06/29 03:16:50;;;;;;;;;;;;;;;;;;2089959;28;20259;-43
2022/06/29 03:17:51;;;;;;;;;;;;;;;;;;2090076;28;19920;-42
2022/06/29 03:18:51;;;;;;;;;;;;;;;;;;2089742;28;20003;-43
2022/06/29 03:19:52;;;;;;;;;;;;;;;;;;2089835;28;20420;-42
2022/06/29 03:20:53;;;;;;;;;;;;;;;;;;2089719;28;20031;-43
2022/06/29 03:21:54;;;;;;;;;;;;;;;;;;2089730;28;19971;-42
2022/06/29 03:22:55;;;;;;;;;;;;;;;;;;2089790;28;20045;-44
2022/06/29 03:23:56;;;;;;;;;;;;;;;;;;2089716;28;20282;-42
2022/06/29 03:24:57;;;;;;;;;;;;;;;;;;2089423;28;20008;-45
2022/06/29 03:25:58;;;;;;;;;;;;;;;;;;2088966;28;20023;-44
2022/06/29 03:26:59;;;;;;;;;;;;;;;;;;2089493;28;19924;-44
2022/06/29 03:28:00;;;;;;;;;;;;;;;;;;2089822;28;19921;-42
2022/06/29 03:29:00;;;;;;;;;;;;;;;;;;2089513;28;20503;-43
2022/06/29 03:30:01;;;;;;;;;;;;;;;;;;2089645;28;20011;-42
2022/06/29 03:31:02;;;;;;;;;;;;;;;;;;2089617;28;19951;-43
2022/06/29 03:32:03;;;;;;;;;;;;;;;;;;2089762;28;20370;-42
2022/06/29 03:33:04;;;;;;;;;;;;;;;;;;2089813;28;19927;-43
2022/06/29 03:34:05;;;;;;;;;;;;;;;;;;2089624;28;20311;-42
2022/06/29 03:35:06;;;;;;;;;;;;;;;;;;2089867;28;19920;-42
2022/06/29 03:36:08;;;;;;;;;;;;;;;;;;2089896;28;19952;-44
2022/06/29 03:37:09;;;;;;;;;;;;;;;;;;2089689;28;19960;-43
2022/06/29 03:38:10;;;;;;;;;;;;;;;;;;2089563;28;19920;-42
2022/06/29 03:39:11;;;;;;;;;;;;;;;;;;2089827;28;19931;-45
2022/06/29 03:40:12;;;;;;;;;;;;;;;;;;2089539;28;20003;-44
2022/06/29 03:41:13;;;;;;;;;;;;;;;;;;2089626;28;19920;-46
2022/06/29 03:42:13;;;;;;;;;;;;;;;;;;2089557;28;20020;-45
2022/06/29 03:43:15;;;;;;;;;;;;;;;;;;2089632;28;19929;-44
2022/06/29 03:44:15;;;;;;;;;;;;;;;;;;2089661;28;20004;-46
2022/06/29 03:45:16;;;;;;;;;;;;;;;;;;2089833;28;20289;-44
2022/06/29 03:46:17;;;;;;;;;;;;;;;;;;2089420;28;20382;-46
2022/06/29 03:47:18;;;;;;;;;;;;;;;;;;2089499;28;20007;-47
2022/06/29 03:48:19;;;;;;;;;;;;;;;;;;2089667;28;19925;-46
2022/06/29 03:49:20;;;;;;;;;;;;;;;;;;2089527;28;19924;-46
2022/06/29 03:50:21;;;;;;;;;;;;;;;;;;2089601;28;20007;-46
2022/06/29 03:51:22;;;;;;;;;;;;;;;;;;2089478;28;19921;-46
2022/06/29 03:52:23;;;;;;;;;;;;;;;;;;2089624;28;19943;-44
2022/06/29 03:53:24;;;;;;;;;;;;;;;;;;2096444;28;20005;-46
2022/06/29 03:54:24;;;;;;;;;;;;;;;;;;2097996;28;19920;-44
2022/06/29 03:55:25;;;;;;;;;;;;;;;;;;2097869;28;20011;-44
2022/06/29 03:56:26;;;;;;;;;;;;;;;;;;2097720;28;19985;-47
2022/06/29 03:57:27;;;;;;;;;;;;;;;;;;2098161;28;19921;-42
2022/06/29 03:58:28;;;;;;;;;;;;;;;;;;2097923;28;20007;-44
2022/06/29 03:59:29;;;;;;;;;;;;;;;;;;2097897;28;20282;-44
2022/06/29 04:00:30;;;;;;;;;;;;;;;;;;2098001;28;19963;-45
2022/06/29 04:01:31;;;;;;;;;;;;;;;;;;2097638;28;19977;-44
2022/06/29 04:02:31;;;;;;;;;;;;;;;;;;2097716;28;19920;-44
2022/06/29 04:03:32;;;;;;;;;;;;;;;;;;2097628;28;19921;-45
2022/06/29 04:04:33;;;;;;;;;;;;;;;;;;2097635;28;20349;-46
2022/06/29 04:05:34;;;;;;;;;;;;;;;;;;2097682;28;19927;-44
2022/06/29 04:06:35;;;;;;;;;;;;;;;;;;2097872;28;20365;-45
2022/06/29 04:07:36;;;;;;;;;;;;;;;;;;2097608;28;19927;-45
2022/06/29 04:08:37;;;;;;;;;;;;;;;;;;2097721;28;20319;-46
2022/06/29 04:09:38;;;;;;;;;;;;;;;;;;2097767;28;19921;-44
2022/06/29 04:10:39;;;;;;;;;;;;;;;;;;2097928;28;19931;-43
2022/06/29 04:11:49;;;;;;;;;;;;;;;;;;2091054;28;19970;-45
2022/06/29 04:12:49;;;;;;;;;;;;;;;;;;2089357;28;19972;-43
2022/06/29 04:13:50;;;;;;;;;;;;;;;;;;2089234;28;19966;-44
2022/06/29 04:14:51;;;;;;;;;;;;;;;;;;2089502;28;20142;-42
2022/06/29 04:15:52;;;;;;;;;;;;;;;;;;2089311;28;20081;-43
2022/06/29 04:16:53;;;;;;;;;;;;;;;;;;2089352;28;20130;-42
2022/06/29 04:17:54;;;;;;;;;;;;;;;;;;2089533;28;19967;-43
2022/06/29 04:18:54;;;;;;;;;;;;;;;;;;2089558;28;20397;-43
2022/06/29 04:19:55;;;;;;;;;;;;;;;;;;2089558;28;19929;-45
2022/06/29 04:21:08;;;;;;;;;;;;;;;;;;2089271;28;20617;-45
2022/06/29 04:22:09;;;;;;;;;;;;;;;;;;2089670;28;20202;-43
2022/06/29 04:23:10;;;;;;;;;;;;;;;;;;2089267;28;20297;-44
2022/06/29 04:24:11;;;;;;;;;;;;;;;;;;2089455;28;19920;-43
2022/06/29 04:25:12;;;;;;;;;;;;;;;;;;2089371;28;20051;-43
2022/06/29 04:26:13;;;;;;;;;;;;;;;;;;2089418;28;20343;-45
2022/06/29 04:27:14;;;;;;;;;;;;;;;;;;2089246;28;20466;-45
2022/06/29 04:28:15;;;;;;;;;;;;;;;;;;2089389;28;20010;-45
2022/06/29 04:29:15;;;;;;;;;;;;;;;;;;2089376;28;19959;-46
2022/06/29 04:30:16;;;;;;;;;;;;;;;;;;2089268;28;19920;-45
2022/06/29 04:31:17;;;;;;;;;;;;;;;;;;2089175;28;20263;-45
2022/06/29 04:32:18;;;;;;;;;;;;;;;;;;2089271;28;19949;-45
2022/06/29 04:33:19;;;;;;;;;;;;;;;;;;2089245;28;20006;-45
2022/06/29 04:34:20;;;;;;;;;;;;;;;;;;2089510;28;19929;-45
2022/06/29 04:35:21;;;;;;;;;;;;;;;;;;2089264;28;20393;-45
2022/06/29 04:36:22;;;;;;;;;;;;;;;;;;2089384;28;20058;-42
2022/06/29 04:37:23;;;;;;;;;;;;;;;;;;2090523;28;19956;-43
2022/06/29 04:38:24;;;;;;;;;;;;;;;;;;2090710;28;19927;-43
2022/06/29 04:39:25;;;;;;;;;;;;;;;;;;2091082;28;20390;-43
2022/06/29 04:40:26;;;;;;;;;;;;;;;;;;2090845;28;20055;-44
2022/06/29 04:41:27;;;;;;;;;;;;;;;;;;2090794;28;20334;-43
2022/06/29 04:42:28;;;;;;;;;;;;;;;;;;2090789;28;20436;-43
2022/06/29 04:43:29;;;;;;;;;;;;;;;;;;2090622;28;19952;-43
2022/06/29 04:44:30;;;;;;;;;;;;;;;;;;2090652;28;20007;-44
2022/06/29 04:46:50;;;;;;;;;;;;;;;;;;2090735;28;19928;-43
2022/06/29 04:47:51;;;;;;;;;;;;;;;;;;2090549;28;20281;-44
2022/06/29 04:48:53;;;;;;;;;;;;;;;;;;2091954;28;19925;-45
2022/06/29 04:49:54;;;;;;;;;;;;;;;;;;2099093;28;20011;-44
2022/06/29 04:50:55;;;;;;;;;;;;;;;;;;2099192;28;19927;-44
2022/06/29 04:51:56;;;;;;;;;;;;;;;;;;2098915;28;20298;-43
2022/06/29 04:52:56;;;;;;;;;;;;;;;;;;2099215;28;20054;-45
2022/06/29 04:53:57;;;;;;;;;;;;;;;;;;2098895;28;20007;-44
2022/06/29 04:54:58;;;;;;;;;;;;;;;;;;2099029;28;19920;-43
2022/06/29 04:55:59;;;;;;;;;;;;;;;;;;2098901;28;19924;-43
2022/06/29 04:57:00;;;;;;;;;;;;;;;;;;2098883;28;19920;-44
2022/06/29 04:58:01;;;;;;;;;;;;;;;;;;2099313;28;20014;-43
2022/06/29 04:59:02;;;;;;;;;;;;;;;;;;2098973;28;19920;-43
2022/06/29 05:00:03;;;;;;;;;;;;;;;;;;2098983;28;20435;-43
2022/06/29 05:01:04;;;;;;;;;;;;;;;;;;2098623;28;19939;-43
2022/06/29 05:02:04;;;;;;;;;;;;;;;;;;2099158;28;19921;-43
2022/06/29 05:03:05;;;;;;;;;;;;;;;;;;2098970;28;19955;-45
2022/06/29 05:04:06;;;;;;;;;;;;;;;;;;2098754;28;20385;-42
2022/06/29 05:05:07;;;;;;;;;;;;;;;;;;2099450;28;20405;-45
2022/06/29 05:06:08;;;;;;;;;;;;;;;;;;2098944;28;19924;-46
2022/06/29 05:07:09;;;;;;;;;;;;;;;;;;2098830;28;20040;-47
2022/06/29 05:08:10;;;;;;;;;;;;;;;;;;2098684;28;19925;-47
2022/06/29 05:09:11;;;;;;;;;;;;;;;;;;2098976;28;20007;-47
2022/06/29 05:10:12;;;;;;;;;;;;;;;;;;2099062;28;19920;-46
2022/06/29 05:11:14;;;;;;;;;;;;;;;;;;2096116;28;19928;-42
2022/06/29 05:12:14;;;;;;;;;;;;;;;;;;2090439;28;20365;-45
2022/06/29 05:13:15;;;;;;;;;;;;;;;;;;2090771;28;19927;-46
2022/06/29 05:14:17;;;;;;;;;;;;;;;;;;2090687;28;19921;-46
2022/06/29 05:15:17;;;;;;;;;;;;;;;;;;2090808;28;20012;-44
2022/06/29 05:16:19;;;;;;;;;;;;;;;;;;2090447;28;19921;-43
2022/06/29 05:17:20;;;;;;;;;;;;;;;;;;2090386;28;19970;-46
2022/06/29 05:18:21;;;;;;;;;;;;;;;;;;2090485;28;20370;-46
2022/06/29 05:19:30;;;;;;;;;;;;;;;;;;2090816;28;20023;-43
2022/06/29 05:20:30;;;;;;;;;;;;;;;;;;2090529;28;20438;-45
2022/06/29 05:21:31;;;;;;;;;;;;;;;;;;2090290;28;19928;-46
2022/06/29 05:22:32;;;;;;;;;;;;;;;;;;2090698;28;19924;-46
2022/06/29 05:23:33;;;;;;;;;;;;;;;;;;2090668;28;19975;-43
2022/06/29 05:24:34;;;;;;;;;;;;;;;;;;2090543;28;20003;-44
2022/06/29 05:25:35;;;;;;;;;;;;;;;;;;2090287;28;19983;-44
2022/06/29 05:26:37;;;;;;;;;;;;;;;;;;2090297;28;20355;-45
2022/06/29 05:27:38;;;;;;;;;;;;;;;;;;2090616;28;20433;-44
2022/06/29 05:28:39;;;;;;;;;;;;;;;;;;2090473;28;20380;-44
2022/06/29 05:29:40;;;;;;;;;;;;;;;;;;2090343;28;20003;-44
2022/06/29 05:30:41;;;;;;;;;;;;;;;;;;2090346;28;19921;-46
2022/06/29 05:31:42;;;;;;;;;;;;;;;;;;2090291;28;20485;-44
2022/06/29 05:32:42;;;;;;;;;;;;;;;;;;2090792;28;19927;-45
2022/06/29 05:33:43;;;;;;;;;;;;;;;;;;2090546;28;19963;-47
2022/06/29 05:34:44;;;;;;;;;;;;;;;;;;2090174;28;20401;-44
2022/06/29 05:35:45;;;;;;;;;;;;;;;;;;2090722;28;20019;-44
2022/06/29 05:36:46;;;;;;;;;;;;;;;;;;2090573;28;19927;-45
2022/06/29 05:37:47;;;;;;;;;;;;;;;;;;2090961;28;19955;-46
2022/06/29 05:38:48;;;;;;;;;;;;;;;;;;2090319;28;20288;-46
2022/06/29 05:39:49;;;;;;;;;;;;;;;;;;2090476;28;19932;-44
2022/06/29 05:40:50;;;;;;;;;;;;;;;;;;2090165;28;19924;-44
2022/06/29 05:41:51;;;;;;;;;;;;;;;;;;2090729;28;20000;-44
2022/06/29 05:42:52;;;;;;;;;;;;;;;;;;2090662;28;20008;-44
2022/06/29 05:43:53;;;;;;;;;;;;;;;;;;2090420;28;20041;-47
2022/06/29 05:44:54;;;;;;;;;;;;;;;;;;2090660;28;20267;-44
2022/06/29 05:45:54;;;;;;;;;;;;;;;;;;2097352;28;19920;-49
2022/06/29 05:46:55;;;;;;;;;;;;;;;;;;2098602;28;20149;-45
2022/06/29 05:47:57;;;;;;;;;;;;;;;;;;2098435;28;19920;-45
2022/06/29 05:48:58;;;;;;;;;;;;;;;;;;2097751;28;20386;-44
2022/06/29 05:50:00;;;;;;;;;;;;;;;;;;2098704;28;20503;-43
2022/06/29 05:51:01;;;;;;;;;;;;;;;;;;2098594;28;20464;-45
2022/06/29 05:52:02;;;;;;;;;;;;;;;;;;2098675;28;19921;-43
2022/06/29 05:53:03;;;;;;;;;;;;;;;;;;2098689;28;20070;-43
2022/06/29 05:54:04;;;;;;;;;;;;;;;;;;2098443;28;19974;-43
2022/06/29 05:55:05;;;;;;;;;;;;;;;;;;2098539;28;19964;-44
2022/06/29 05:56:06;;;;;;;;;;;;;;;;;;2099185;28;19920;-44
2022/06/29 05:57:07;;;;;;;;;;;;;;;;;;2098563;28;19921;-44
2022/06/29 05:58:08;;;;;;;;;;;;;;;;;;2098905;28;19957;-45
2022/06/29 05:59:09;;;;;;;;;;;;;;;;;;2098512;28;19927;-44
2022/06/29 06:00:10;;;;;;;;;;;;;;;;;;2098622;28;19931;-45
2022/06/29 06:01:11;;;;;;;;;;;;;;;;;;2098568;28;19999;-45
2022/06/29 06:02:13;;;;;;;;;;;;;;;;;;2098264;28;19967;-43
2022/06/29 06:03:14;;;;;;;;;;;;;;;;;;2098433;28;20011;-44
2022/06/29 06:04:15;;;;;;;;;;;;;;;;;;2098687;28;19921;-45
2022/06/29 06:05:16;;;;;;;;;;;;;;;;;;2098675;28;20003;-44
2022/06/29 06:06:17;;;;;;;;;;;;;;;;;;2098375;28;19920;-43
2022/06/29 06:07:18;;;;;;;;;;;;;;;;;;2098433;28;20012;-43
2022/06/29 06:08:19;;;;;;;;;;;;;;;;;;2098383;28;19927;-44
2022/06/29 06:09:25;;;;;;;;;;;;;;;;;;2098548;28;19977;-43
2022/06/29 06:10:26;;;;;;;;;;;;;;;;;;2098546;28;19966;-43
2022/06/29 06:11:26;;;;;;;;;;;;;;;;;;2093708;28;19968;-44
2022/06/29 06:12:28;;;;;;;;;;;;;;;;;;2090120;28;19920;-43
2022/06/29 06:13:29;;;;;;;;;;;;;;;;;;2090110;28;19925;-44
2022/06/29 06:14:30;;;;;;;;;;;;;;;;;;2090078;28;20062;-45
2022/06/29 06:15:32;;;;;;;;;;;;;;;;;;2090021;28;20465;-43
2022/06/29 06:16:33;;;;;;;;;;;;;;;;;;2090305;28;19921;-43
2022/06/29 06:17:42;;;;;;;;;;;;;;;;;;2090408;28;19921;-45
2022/06/29 06:18:43;;;;;;;;;;;;;;;;;;2090050;28;20386;-46
2022/06/29 06:19:44;;;;;;;;;;;;;;;;;;2090318;28;20003;-45
2022/06/29 06:20:45;;;;;;;;;;;;;;;;;;2090218;28;19948;-44
2022/06/29 06:21:46;;;;;;;;;;;;;;;;;;2090050;28;19970;-43
2022/06/29 06:22:47;;;;;;;;;;;;;;;;;;2090109;28;20225;-45
2022/06/29 06:23:48;;;;;;;;;;;;;;;;;;2090533;28;20003;-46
2022/06/29 06:24:49;;;;;;;;;;;;;;;;;;2089991;28;20016;-45
2022/06/29 06:25:50;;;;;;;;;;;;;;;;;;2090024;28;20011;-45
2022/06/29 06:26:51;;;;;;;;;;;;;;;;;;2090007;28;19921;-45
2022/06/29 06:27:52;;;;;;;;;;;;;;;;;;2090090;28;20015;-45
2022/06/29 06:28:53;;;;;;;;;;;;;;;;;;2090207;28;20289;-45
2022/06/29 06:29:57;;;;;;;;;;;;;;;;;;2089934;28;19920;-45
2022/06/29 06:30:58;;;;;;;;;;;;;;;;;;2090379;28;19991;-43
2022/06/29 06:32:01;;;;;;;;;;;;;;;;;;2090095;28;19921;-43
2022/06/29 06:33:01;;;;;;;;;;;;;;;;;;2089948;28;20000;-44
2022/06/29 06:34:02;;;;;;;;;;;;;;;;;;2090155;28;20314;-46
2022/06/29 06:35:03;;;;;;;;;;;;;;;;;;2090108;28;20000;-45
2022/06/29 06:36:05;;;;;;;;;;;;;;;;;;2089878;28;19928;-45
2022/06/29 06:37:06;;;;;;;;;;;;;;;;;;2090051;28;20015;-45
2022/06/29 06:38:06;;;;;;;;;;;;;;;;;;2090176;28;20023;-43
2022/06/29 06:39:07;;;;;;;;;;;;;;;;;;2090007;28;19921;-43
2022/06/29 06:41:28;;;;;;;;;;;;;;;;;;2091212;28;19920;-44
2022/06/29 06:42:28;;;;;;;;;;;;;;;;;;2098520;28;19954;-45
2022/06/29 06:43:29;;;;;;;;;;;;;;;;;;2098263;28;19932;-43
2022/06/29 06:44:30;;;;;;;;;;;;;;;;;;2098100;28;19920;-44
2022/06/29 06:45:34;;;;;;;;;;;;;;;;;;2098317;28;19928;-45
2022/06/29 06:46:35;;;;;;;;;;;;;;;;;;2098144;28;19920;-43
2022/06/29 06:47:36;;;;;;;;;;;;;;;;;;2098553;28;20054;-44
2022/06/29 06:48:37;;;;;;;;;;;;;;;;;;2098499;28;19928;-45
2022/06/29 06:49:38;;;;;;;;;;;;;;;;;;2098137;28;20007;-46
2022/06/29 06:50:39;;;;;;;;;;;;;;;;;;2098244;28;19920;-44
2022/06/29 06:51:43;;;;;;;;;;;;;;;;;;2098055;28;19920;-44
2022/06/29 06:52:43;;;;;;;;;;;;;;;;;;2098066;28;19965;-43
2022/06/29 06:53:44;;;;;;;;;;;;;;;;;;2098133;28;20438;-43
2022/06/29 06:54:45;;;;;;;;;;;;;;;;;;2098640;28;20042;-43
2022/06/29 06:55:46;;;;;;;;;;;;;;;;;;2098127;28;19928;-43
2022/06/29 06:56:47;;;;;;;;;;;;;;;;;;2098292;28;19920;-43
2022/06/29 06:57:48;;;;;;;;;;;;;;;;;;2098065;28;19991;-44
2022/06/29 06:58:49;;;;;;;;;;;;;;;;;;2098142;28;19959;-43
2022/06/29 06:59:54;;;;;;;;;;;;;;;;;;2097982;28;20007;-43
2022/06/29 07:00:55;;;;;;;;;;;;;;;;;;2098237;28;19952;-45
2022/06/29 07:01:56;;;;;;;;;;;;;;;;;;2098166;28;20011;-45
2022/06/29 07:02:57;;;;;;;;;;;;;;;;;;2098000;28;20352;-45
2022/06/29 07:03:58;;;;;;;;;;;;;;;;;;2098387;28;20045;-45